Mar de Espanha, Brazil
Current Conditions -  °F | °C
As of 4:00 PM on Tuesday 21 Oct 2014 (Local Time) from SBBQ Reporting Station
Haze Haze  
Wind Chill: 61°   Ceiling: 600
Heat Index: 61°   Visibility: 2.1mi
Dew Point: 57°   Wind: 7mph
Humidity: 88%   Direction: 150°SSE
Pressure: 30.21"   Gusts: NA
Location:  21.87°S, 43.01°W
Report Text: SBBQ 211800Z 15006KT 3500 BR OVC006 16/14 Q1023
Loading
Personal Weather Stations






























Interactive Weather Map
Tropical Storm Tracking
New forecast layout! Learn more

10-Day Weather Forecast

Advertisements
Track Severe Weather on mobile